createdAt,value
2023-04-02T00:01:55.527Z,93141.00
2023-04-02T00:06:45.926Z,93147.00
2023-04-02T00:10:51.769Z,93152.00
2023-04-02T00:14:58.350Z,93147.00
2023-04-02T00:19:09.014Z,93151.00
2023-04-02T00:23:14.375Z,93142.00
2023-04-02T00:27:18.201Z,93143.00
2023-04-02T00:31:31.376Z,93147.00
2023-04-02T00:35:39.759Z,93144.00
2023-04-02T00:39:54.680Z,93132.00
2023-04-02T00:45:17.725Z,93146.00
2023-04-02T00:49:32.932Z,93151.00
2023-04-02T00:53:37.713Z,93134.00
2023-04-02T00:57:45.114Z,93156.00
2023-04-02T01:02:02.008Z,93147.00
2023-04-02T01:06:12.754Z,93140.00
2023-04-02T01:11:10.855Z,93151.00
2023-04-02T01:15:30.601Z,93127.00
2023-04-02T01:20:01.104Z,93140.00
2023-04-02T01:24:08.817Z,93153.00
2023-04-02T01:28:29.244Z,93140.00
2023-04-02T01:32:35.244Z,93155.00
2023-04-02T01:37:02.189Z,93138.00
2023-04-02T01:41:17.362Z,93135.00
2023-04-02T01:45:23.140Z,93146.00
2023-04-02T01:49:28.638Z,93140.00
2023-04-02T01:53:57.835Z,93152.00
2023-04-02T01:58:02.513Z,93163.00
2023-04-02T02:06:46.464Z,93157.00
2023-04-02T02:10:50.875Z,93144.00
2023-04-02T02:14:54.577Z,93153.00
2023-04-02T02:19:03.979Z,93168.00
2023-04-02T02:23:09.952Z,93164.00
2023-04-02T02:27:49.529Z,93169.00
2023-04-02T02:32:19.331Z,93165.00
2023-04-02T02:36:46.788Z,93165.00
2023-04-02T02:45:35.490Z,93173.00
2023-04-02T02:49:42.225Z,93176.00
2023-04-02T02:53:49.695Z,93169.00
2023-04-02T02:58:23.627Z,93178.00
2023-04-02T03:02:50.149Z,93183.00
2023-04-02T03:07:25.731Z,93188.00
2023-04-02T03:11:38.438Z,93183.00
2023-04-02T03:16:11.621Z,93181.00
2023-04-02T03:20:26.073Z,93189.00
2023-04-02T03:28:58.640Z,93186.00
2023-04-02T03:33:07.771Z,93192.00
2023-04-02T03:37:28.292Z,93205.00
2023-04-02T03:41:41.860Z,93193.00
2023-04-02T03:45:49.392Z,93192.00
2023-04-02T03:49:59.179Z,93190.00
2023-04-02T03:54:03.563Z,93200.00
2023-04-02T03:58:14.522Z,93197.00
2023-04-02T04:02:36.467Z,93175.00
2023-04-02T04:12:34.759Z,93201.00
2023-04-02T04:16:47.689Z,93198.00
2023-04-02T04:20:56.815Z,93186.00
2023-04-02T04:25:29.830Z,93221.00
2023-04-02T04:29:49.309Z,93232.00
2023-04-02T04:34:04.213Z,93235.00
2023-04-02T04:38:18.587Z,93225.00
2023-04-02T04:42:24.563Z,93242.00
2023-04-02T04:46:34.498Z,93249.00
2023-04-02T04:50:42.476Z,93249.00
2023-04-02T04:54:47.941Z,93257.00
2023-04-02T04:59:07.413Z,93262.00
2023-04-02T05:03:38.459Z,93272.00
2023-04-02T05:07:49.287Z,93280.00
2023-04-02T05:12:23.196Z,93281.00
2023-04-02T05:20:58.156Z,93282.00
2023-04-02T05:25:21.365Z,93292.00
2023-04-02T05:29:32.154Z,93297.00
2023-04-02T05:33:37.372Z,93292.00
2023-04-02T05:37:47.601Z,93303.00
2023-04-02T05:42:04.005Z,93296.00
2023-04-02T05:46:37.261Z,93302.00
2023-04-02T05:50:46.220Z,93300.00
2023-04-02T05:55:01.386Z,93308.00
2023-04-02T05:59:27.155Z,93330.00
2023-04-02T06:03:46.552Z,93319.00
2023-04-02T06:07:58.522Z,93321.00
2023-04-02T06:12:12.221Z,93310.00
2023-04-02T06:16:18.278Z,93309.00
2023-04-02T06:20:22.684Z,93306.00
2023-04-02T06:24:32.261Z,93328.00
2023-04-02T06:28:58.335Z,93329.00
2023-04-02T06:33:29.204Z,93337.00
2023-04-02T06:37:43.157Z,93331.00
2023-04-02T06:41:58.491Z,93344.00
2023-04-02T06:46:46.993Z,93356.00
2023-04-02T06:50:57.748Z,93353.00
2023-04-02T06:55:02.348Z,93354.00
2023-04-02T06:59:07.663Z,93366.00
2023-04-02T07:03:23.013Z,93373.00
2023-04-02T07:08:22.005Z,93388.00
2023-04-02T07:12:26.262Z,93385.00
2023-04-02T07:16:32.768Z,93391.00
2023-04-02T07:20:41.817Z,93391.00
2023-04-02T07:24:49.502Z,93401.00
2023-04-02T07:28:53.590Z,93377.00
2023-04-02T07:33:23.358Z,93415.00
2023-04-02T07:37:38.612Z,93398.00
2023-04-02T07:42:05.030Z,93414.00
2023-04-02T07:46:10.963Z,93411.00
2023-04-02T07:50:14.890Z,93415.00
2023-04-02T07:54:22.196Z,93408.00
2023-04-02T07:58:25.728Z,93411.00
2023-04-02T08:02:29.413Z,93435.00
2023-04-02T08:06:33.279Z,93434.00
2023-04-02T08:10:40.429Z,93444.00
2023-04-02T08:14:44.029Z,93447.00
2023-04-02T08:18:48.017Z,93443.00
2023-04-02T08:22:52.640Z,93469.00
2023-04-02T08:26:58.016Z,93448.00
2023-04-02T08:31:01.713Z,93478.00
2023-04-02T08:35:30.526Z,93465.00
2023-04-02T08:39:35.420Z,93450.00
2023-04-02T08:43:57.910Z,93468.00
2023-04-02T08:48:03.568Z,93484.00
2023-04-02T08:52:07.420Z,93471.00
2023-04-02T08:56:35.156Z,93489.00
2023-04-02T09:00:43.108Z,93496.00
2023-04-02T09:04:46.772Z,93489.00
2023-04-02T09:08:52.696Z,93516.00
2023-04-02T09:12:58.750Z,93493.00
2023-04-02T09:17:23.833Z,93519.00
2023-04-02T09:21:39.628Z,93510.00
2023-04-02T09:25:57.335Z,93501.00
2023-04-02T09:30:25.760Z,93525.00
2023-04-02T09:34:32.091Z,93534.00
2023-04-02T09:38:35.771Z,93538.00
2023-04-02T09:42:48.514Z,93536.00
2023-04-02T09:46:59.870Z,93517.00
2023-04-02T09:51:36.723Z,93518.00
2023-04-02T09:55:40.397Z,93513.00
2023-04-02T09:59:44.117Z,93551.00
2023-04-02T10:04:44.485Z,93552.00
2023-04-02T10:08:49.920Z,93552.00
2023-04-02T10:13:10.855Z,93559.00
2023-04-02T10:17:19.154Z,93553.00
2023-04-02T10:21:36.306Z,93560.00
2023-04-02T10:25:59.261Z,93570.00
2023-04-02T10:30:22.702Z,93562.00
2023-04-02T10:34:31.217Z,93566.00
2023-04-02T10:38:52.666Z,93552.00
2023-04-02T10:43:45.519Z,93556.00
2023-04-02T10:52:35.139Z,93575.00
2023-04-02T10:56:48.289Z,93587.00
2023-04-02T11:01:01.238Z,93588.00
2023-04-02T11:05:23.855Z,93603.00
2023-04-02T11:09:38.194Z,93601.00
2023-04-02T11:13:51.960Z,93598.00
2023-04-02T11:17:57.358Z,93629.00
2023-04-02T11:22:05.196Z,93612.00
2023-04-02T11:26:33.868Z,93614.00
2023-04-02T11:30:37.802Z,93645.00
2023-04-02T11:35:14.952Z,93629.00
2023-04-02T11:39:59.770Z,93652.00
2023-04-02T11:44:03.396Z,93663.00
2023-04-02T11:48:29.484Z,93667.00
2023-04-02T11:52:38.056Z,93656.00
2023-04-02T11:57:47.239Z,93667.00
2023-04-02T12:02:08.244Z,93693.00
2023-04-02T12:06:27.855Z,93671.00
2023-04-02T12:10:35.076Z,93698.00
2023-04-02T12:14:48.418Z,93671.00
2023-04-02T12:18:55.127Z,93701.00
2023-04-02T12:22:59.889Z,93708.00
2023-04-02T12:27:15.743Z,93704.00
2023-04-02T12:31:26.225Z,93704.00
2023-04-02T12:35:32.699Z,93709.00
2023-04-02T12:39:37.563Z,93733.00
2023-04-02T12:43:58.437Z,93735.00
2023-04-02T12:52:29.919Z,93719.00
2023-04-02T12:56:33.641Z,93737.00
2023-04-02T13:00:38.121Z,93728.00
2023-04-02T13:05:10.355Z,93755.00
2023-04-02T13:09:42.976Z,93757.00
2023-04-02T13:14:34.549Z,93779.00
2023-04-02T13:18:39.520Z,93749.00
2023-04-02T13:22:44.702Z,93781.00
2023-04-02T13:27:11.595Z,93792.00
2023-04-02T13:31:18.070Z,93784.00
2023-04-02T13:35:22.688Z,93792.00
2023-04-02T13:39:30.479Z,93777.00
2023-04-02T13:43:34.049Z,93799.00
2023-04-02T13:47:39.774Z,93817.00
2023-04-02T13:51:46.973Z,93819.00
2023-04-02T13:55:52.843Z,93796.00
2023-04-02T13:59:56.362Z,93825.00
2023-04-02T14:04:51.155Z,93825.00
2023-04-02T14:09:05.482Z,93826.00
2023-04-02T14:13:31.293Z,93812.00
2023-04-02T14:18:01.665Z,93848.00
2023-04-02T14:22:29.773Z,93841.00
2023-04-02T14:26:44.194Z,93852.00
2023-04-02T14:30:55.206Z,93861.00
2023-04-02T14:35:25.137Z,93868.00
2023-04-02T14:39:40.645Z,93847.00
2023-04-02T14:43:59.189Z,93847.00
2023-04-02T14:52:55.790Z,93887.00
2023-04-02T14:57:08.390Z,93892.00
2023-04-02T15:01:15.881Z,93902.00
2023-04-02T15:05:28.408Z,93888.00
2023-04-02T15:09:35.618Z,93905.00
2023-04-02T15:13:44.064Z,93906.00
2023-04-02T15:18:11.052Z,93903.00
2023-04-02T15:22:34.492Z,93901.00
2023-04-02T15:27:07.117Z,93904.00
2023-04-02T15:31:17.072Z,93925.00
2023-04-02T15:35:46.412Z,93903.00
2023-04-02T15:40:15.921Z,93921.00
2023-04-02T15:44:19.772Z,93931.00
2023-04-02T15:48:52.972Z,93954.00
2023-04-02T15:53:18.749Z,93961.00
2023-04-02T15:57:49.171Z,93957.00
2023-04-02T16:01:59.708Z,93969.00
2023-04-02T16:06:29.105Z,93968.00
2023-04-02T16:10:42.396Z,93971.00
2023-04-02T16:14:50.798Z,93966.00
2023-04-02T16:19:22.899Z,93991.00
2023-04-02T16:23:46.866Z,93997.00
2023-04-02T16:27:59.135Z,94021.00
2023-04-02T16:32:28.145Z,94015.00
2023-04-02T16:42:26.481Z,94031.00
2023-04-02T16:46:55.136Z,94053.00
2023-04-02T16:51:11.202Z,94051.00
2023-04-02T16:55:30.681Z,94074.00
2023-04-02T16:59:49.885Z,94044.00
2023-04-02T17:04:22.077Z,94076.00
2023-04-02T17:08:28.903Z,94061.00
2023-04-02T17:12:44.832Z,94069.00
2023-04-02T17:16:54.247Z,94057.00
2023-04-02T17:21:02.266Z,94078.00
2023-04-02T17:25:17.138Z,94083.00
2023-04-02T17:29:25.506Z,94106.00
2023-04-02T17:33:29.232Z,94093.00
2023-04-02T17:37:36.508Z,94121.00
2023-04-02T17:41:49.197Z,94106.00
2023-04-02T17:45:54.246Z,94111.00
2023-04-02T17:50:23.140Z,94100.00
2023-04-02T17:54:44.838Z,94125.00
2023-04-02T17:59:21.912Z,94141.00
2023-04-02T18:03:44.232Z,94153.00
2023-04-02T18:07:58.067Z,94168.00
2023-04-02T18:12:12.294Z,94139.00
2023-04-02T18:16:37.630Z,94145.00
2023-04-02T18:20:45.965Z,94152.00
2023-04-02T18:25:28.896Z,94186.00
2023-04-02T18:29:41.374Z,94202.00
2023-04-02T18:34:29.976Z,94201.00
2023-04-02T18:38:49.874Z,94185.00
2023-04-02T18:43:15.293Z,94211.00
2023-04-02T18:47:26.018Z,94193.00
2023-04-02T18:51:37.047Z,94205.00
2023-04-02T18:55:44.443Z,94214.00
2023-04-02T18:59:52.926Z,94209.00
2023-04-02T19:04:43.291Z,94252.00
2023-04-02T19:08:51.715Z,94216.00
2023-04-02T19:13:16.751Z,94248.00
2023-04-02T19:17:32.860Z,94268.00
2023-04-02T19:22:01.255Z,94270.00
2023-04-02T19:26:10.086Z,94287.00
2023-04-02T19:30:44.189Z,94283.00
2023-04-02T19:40:05.342Z,94313.00
2023-04-02T19:44:13.398Z,94284.00
2023-04-02T19:48:20.379Z,94294.00
2023-04-02T19:52:30.335Z,94321.00
2023-04-02T19:56:33.848Z,94323.00
2023-04-02T20:00:39.101Z,94293.00
2023-04-02T20:04:46.774Z,94314.00
2023-04-02T20:08:50.347Z,94318.00
2023-04-02T20:12:54.102Z,94355.00
2023-04-02T20:17:01.679Z,94349.00
2023-04-02T20:21:06.629Z,94325.00
2023-04-02T20:25:10.858Z,94365.00
2023-04-02T20:29:41.372Z,94368.00
2023-04-02T20:33:46.877Z,94385.00
2023-04-02T20:37:50.405Z,94377.00
2023-04-02T20:41:53.903Z,94388.00
2023-04-02T20:46:23.143Z,94402.00
2023-04-02T20:50:33.522Z,94394.00
2023-04-02T20:54:37.080Z,94377.00
2023-04-02T20:58:41.185Z,94405.00
2023-04-02T21:02:45.996Z,94380.00
2023-04-02T21:07:16.859Z,94414.00
2023-04-02T21:11:45.610Z,94414.00
2023-04-02T21:15:49.091Z,94384.00
2023-04-02T21:19:52.556Z,94414.00
2023-04-02T21:24:11.455Z,94400.00
2023-04-02T21:28:14.928Z,94408.00
2023-04-02T21:32:21.234Z,94392.00
2023-04-02T21:36:51.418Z,94408.00
2023-04-02T21:41:24.841Z,94417.00
2023-04-02T21:45:53.106Z,94415.00
2023-04-02T21:50:19.321Z,94414.00
2023-04-02T21:54:22.913Z,94394.00
2023-04-02T21:58:27.863Z,94399.00
2023-04-02T22:02:31.781Z,94390.00
2023-04-02T22:07:01.208Z,94418.00
2023-04-02T22:11:07.246Z,94414.00
2023-04-02T22:15:13.234Z,94412.00
2023-04-02T22:19:18.216Z,94429.00
2023-04-02T22:23:30.636Z,94416.00
2023-04-02T22:27:34.104Z,94404.00
2023-04-02T22:31:39.358Z,94387.00
2023-04-02T22:36:08.255Z,94428.00
2023-04-02T22:40:30.856Z,94434.00
2023-04-02T22:44:34.395Z,94412.00
2023-04-02T22:48:40.104Z,94428.00
2023-04-02T22:52:43.757Z,94426.00
2023-04-02T22:56:47.300Z,94421.00
2023-04-02T23:00:50.797Z,94406.00
2023-04-02T23:04:58.009Z,94401.00
2023-04-02T23:09:01.642Z,94391.00
2023-04-02T23:13:05.171Z,94414.00
2023-04-02T23:17:35.994Z,94420.00
2023-04-02T23:21:41.155Z,94423.00
2023-04-02T23:25:44.597Z,94420.00
2023-04-02T23:29:48.232Z,94421.00
2023-04-02T23:33:54.017Z,94407.00
2023-04-02T23:37:58.984Z,94421.00
2023-04-02T23:42:02.621Z,94415.00
2023-04-02T23:46:06.526Z,94398.00
2023-04-02T23:50:11.058Z,94414.00
2023-04-02T23:54:16.761Z,94405.00
2023-04-02T23:58:45.405Z,94394.00
